createdAt,value
2022-12-04T00:00:51.477Z,34.47
2022-12-04T00:03:18.314Z,28.80
2022-12-04T00:05:45.067Z,36.83
2022-12-04T00:08:11.882Z,31.15
2022-12-04T00:10:43.515Z,28.98
2022-12-04T00:13:10.415Z,35.70
2022-12-04T00:15:41.901Z,24.60
2022-12-04T00:18:08.642Z,24.23
2022-12-04T00:20:36.221Z,24.80
2022-12-04T00:23:02.967Z,27.60
2022-12-04T00:25:30.789Z,30.90
2022-12-04T00:27:57.510Z,29.17
2022-12-04T00:30:24.301Z,25.67
2022-12-04T00:32:51.046Z,25.40
2022-12-04T00:35:17.824Z,30.10
2022-12-04T00:37:44.519Z,30.77
2022-12-04T00:40:11.849Z,28.00
2022-12-04T00:42:38.567Z,30.33
2022-12-04T00:45:05.787Z,31.27
2022-12-04T00:47:32.517Z,27.20
2022-12-04T00:49:59.246Z,28.50
2022-12-04T00:52:28.315Z,25.20
2022-12-04T00:54:55.843Z,32.10
2022-12-04T00:57:22.537Z,30.13
2022-12-04T00:59:49.346Z,32.00
2022-12-04T01:02:16.124Z,28.05
2022-12-04T01:04:42.877Z,31.45
2022-12-04T01:07:09.609Z,27.30
2022-12-04T01:09:36.402Z,32.88
2022-12-04T01:12:03.163Z,23.77
2022-12-04T01:14:29.887Z,28.92
2022-12-04T01:16:56.814Z,28.13
2022-12-04T01:19:23.552Z,29.48
2022-12-04T01:21:50.306Z,28.05
2022-12-04T01:24:17.085Z,43.08
2022-12-04T01:26:43.821Z,27.13
2022-12-04T01:29:10.569Z,26.27
2022-12-04T01:31:37.375Z,24.58
2022-12-04T01:34:04.209Z,32.70
2022-12-04T01:36:30.961Z,28.25
2022-12-04T01:38:58.002Z,27.30
2022-12-04T01:41:27.020Z,32.20
2022-12-04T01:44:12.711Z,28.27
2022-12-04T01:46:40.533Z,26.83
2022-12-04T01:49:08.756Z,29.63
2022-12-04T01:51:37.780Z,25.88
2022-12-04T01:54:07.615Z,26.80
2022-12-04T01:56:46.612Z,25.15
2022-12-04T01:59:13.512Z,32.97
2022-12-04T02:01:49.394Z,26.90
2022-12-04T02:04:16.170Z,27.02
2022-12-04T02:06:42.889Z,34.70
2022-12-04T02:09:09.598Z,26.17
2022-12-04T02:12:02.463Z,28.67
2022-12-04T02:15:07.060Z,28.75
2022-12-04T02:17:36.796Z,28.85
2022-12-04T02:20:12.319Z,30.83
2022-12-04T02:23:16.869Z,26.67
2022-12-04T02:26:20.564Z,32.92
2022-12-04T02:28:51.599Z,33.22
2022-12-04T02:31:23.221Z,27.23
2022-12-04T02:34:00.826Z,33.05
2022-12-04T02:36:32.878Z,31.77
2022-12-04T02:39:04.150Z,28.27
2022-12-04T02:41:44.350Z,32.13
2022-12-04T02:44:13.068Z,28.67
2022-12-04T02:46:43.968Z,29.30
2022-12-04T02:49:14.665Z,28.55
2022-12-04T02:51:41.404Z,32.13
2022-12-04T02:54:11.836Z,29.95
2022-12-04T02:56:41.234Z,31.58
2022-12-04T02:59:13.165Z,30.15
2022-12-04T03:01:41.841Z,31.17
2022-12-04T03:04:22.326Z,28.92
2022-12-04T03:06:57.284Z,35.67
2022-12-04T03:09:26.184Z,28.23
2022-12-04T03:11:55.702Z,33.42
2022-12-04T03:14:31.380Z,38.22
2022-12-04T03:17:03.731Z,30.77
2022-12-04T03:19:36.893Z,28.77
2022-12-04T03:22:07.136Z,31.83
2022-12-04T03:24:35.365Z,37.42
2022-12-04T03:27:13.262Z,32.80
2022-12-04T03:29:44.456Z,30.10
2022-12-04T03:32:40.436Z,37.72
2022-12-04T03:35:16.196Z,31.60
2022-12-04T03:37:56.824Z,32.33
2022-12-04T03:40:54.484Z,32.47
2022-12-04T03:43:43.899Z,30.58
2022-12-04T03:46:15.796Z,38.17
2022-12-04T03:48:56.332Z,35.45
2022-12-04T03:51:38.344Z,33.25
2022-12-04T03:54:38.290Z,38.97
2022-12-04T03:57:14.199Z,34.97
2022-12-04T03:59:52.456Z,33.83
2022-12-04T04:02:23.924Z,35.88
2022-12-04T04:04:53.300Z,33.50
2022-12-04T04:07:39.603Z,34.88
2022-12-04T04:10:12.662Z,31.25
2022-12-04T04:12:43.069Z,39.90
2022-12-04T04:15:32.877Z,37.97
2022-12-04T04:18:18.359Z,40.08
2022-12-04T04:21:15.322Z,43.65
2022-12-04T04:24:02.592Z,34.28
2022-12-04T04:26:31.690Z,34.50
2022-12-04T04:28:58.440Z,36.75
2022-12-04T04:31:32.802Z,36.70
2022-12-04T04:34:40.726Z,38.55
2022-12-04T04:37:41.210Z,37.25
2022-12-04T04:40:31.175Z,36.45
2022-12-04T04:43:20.963Z,37.97
2022-12-04T04:45:48.771Z,45.97
2022-12-04T04:48:30.299Z,37.53
2022-12-04T04:50:57.812Z,37.97
2022-12-04T04:53:29.890Z,39.03
2022-12-04T04:55:57.157Z,46.03
2022-12-04T04:58:23.849Z,36.67
2022-12-04T05:01:03.322Z,40.47
2022-12-04T05:03:30.241Z,37.05
2022-12-04T05:05:57.053Z,38.03
2022-12-04T05:08:23.907Z,39.45
2022-12-04T05:10:50.624Z,39.85
2022-12-04T05:13:17.487Z,41.25
2022-12-04T05:15:44.288Z,46.67
2022-12-04T05:18:11.154Z,43.78
2022-12-04T05:20:40.747Z,37.70
2022-12-04T05:23:07.477Z,47.28
2022-12-04T05:25:34.184Z,45.67
2022-12-04T05:28:00.887Z,39.47
2022-12-04T05:30:27.637Z,44.30
2022-12-04T05:32:54.490Z,42.38
2022-12-04T05:35:21.200Z,42.08
2022-12-04T05:37:48.026Z,37.90
2022-12-04T05:40:15.054Z,38.85
2022-12-04T05:42:41.768Z,38.72
2022-12-04T05:45:08.719Z,38.47
2022-12-04T05:47:42.405Z,43.45
2022-12-04T05:50:10.310Z,39.72
2022-12-04T05:52:37.104Z,37.13
2022-12-04T05:55:04.041Z,43.22
2022-12-04T05:57:30.917Z,34.90
2022-12-04T05:59:57.775Z,40.08
2022-12-04T06:02:24.824Z,39.83
2022-12-04T06:04:51.602Z,44.85
2022-12-04T06:07:18.598Z,39.03
2022-12-04T06:09:45.518Z,42.17
2022-12-04T06:12:12.286Z,44.92
2022-12-04T06:14:39.946Z,41.80
2022-12-04T06:17:06.853Z,40.10
2022-12-04T06:19:33.601Z,38.50
2022-12-04T06:22:00.302Z,39.72
2022-12-04T06:24:27.085Z,39.35
2022-12-04T06:29:46.475Z,44.88
2022-12-04T06:32:19.463Z,35.78
2022-12-04T06:34:51.640Z,43.90
2022-12-04T06:37:18.503Z,39.55
2022-12-04T06:39:45.273Z,38.85
2022-12-04T06:42:12.021Z,41.10
2022-12-04T06:44:38.765Z,41.78
2022-12-04T06:47:05.700Z,34.22
2022-12-04T06:49:32.448Z,51.80
2022-12-04T06:51:59.222Z,44.80
2022-12-04T06:54:26.567Z,35.42
2022-12-04T06:56:53.304Z,40.35
2022-12-04T06:59:20.017Z,32.28
2022-12-04T07:01:46.755Z,43.33
2022-12-04T07:04:13.460Z,36.17
2022-12-04T07:06:40.462Z,40.78
2022-12-04T07:09:12.066Z,33.05
2022-12-04T07:11:39.631Z,38.65
2022-12-04T07:14:06.396Z,37.65
2022-12-04T07:16:40.058Z,38.80
2022-12-04T07:19:08.669Z,33.47
2022-12-04T07:21:35.401Z,37.58
2022-12-04T07:24:02.188Z,36.45
2022-12-04T07:26:30.022Z,34.47
2022-12-04T07:28:57.729Z,38.95
2022-12-04T07:31:27.921Z,30.05
2022-12-04T07:33:55.047Z,32.45
2022-12-04T07:36:22.376Z,31.13
2022-12-04T07:38:49.105Z,34.35
2022-12-04T07:41:15.941Z,37.38
2022-12-04T07:43:42.673Z,41.72
2022-12-04T07:46:12.169Z,30.90
2022-12-04T07:48:39.034Z,32.92
2022-12-04T07:51:13.870Z,34.65
2022-12-04T07:53:43.182Z,30.17
2022-12-04T07:56:10.516Z,33.05
2022-12-04T07:58:37.300Z,32.13
2022-12-04T08:01:15.601Z,30.83
2022-12-04T08:03:47.669Z,30.35
2022-12-04T08:06:16.018Z,30.83
2022-12-04T08:08:42.748Z,31.00
2022-12-04T08:11:11.690Z,33.15
2022-12-04T08:13:38.502Z,26.13
2022-12-04T08:16:06.502Z,33.78
2022-12-04T08:18:33.293Z,32.85
2022-12-04T08:21:04.755Z,30.27
2022-12-04T08:23:31.681Z,32.10
2022-12-04T08:26:00.464Z,27.63
2022-12-04T08:28:27.306Z,31.48
2022-12-04T08:30:54.086Z,30.17
2022-12-04T08:33:20.869Z,32.78
2022-12-04T08:35:47.583Z,29.15
2022-12-04T08:38:14.368Z,30.00
2022-12-04T08:40:41.112Z,28.05
2022-12-04T08:43:07.886Z,33.38
2022-12-04T08:45:34.772Z,31.40
2022-12-04T08:48:02.194Z,29.88
2022-12-04T08:50:29.002Z,31.17
2022-12-04T08:52:56.316Z,23.13
2022-12-04T08:55:23.094Z,21.80
2022-12-04T08:57:52.421Z,19.60
2022-12-04T09:00:19.777Z,25.98
2022-12-04T09:02:49.917Z,26.15
2022-12-04T09:05:17.527Z,25.85
2022-12-04T09:07:44.328Z,24.88
2022-12-04T09:10:12.339Z,23.02
2022-12-04T09:12:39.155Z,23.50
2022-12-04T09:15:06.755Z,24.58
2022-12-04T09:17:35.371Z,29.60
2022-12-04T09:20:04.132Z,25.67
2022-12-04T09:22:51.322Z,22.40
2022-12-04T09:25:19.820Z,21.20
2022-12-04T09:27:46.667Z,26.58
2022-12-04T09:30:13.800Z,23.33
2022-12-04T09:32:40.666Z,20.90
2022-12-04T09:35:07.788Z,26.30
2022-12-04T09:37:36.624Z,30.65
2022-12-04T09:40:07.185Z,25.00
2022-12-04T09:42:46.287Z,29.70
2022-12-04T09:45:17.588Z,26.40
2022-12-04T09:47:49.495Z,28.83
2022-12-04T09:50:40.527Z,25.65
2022-12-04T09:53:11.723Z,29.00
2022-12-04T09:55:47.376Z,22.20
2022-12-04T09:58:23.777Z,31.63
2022-12-04T10:00:51.719Z,27.27
2022-12-04T10:03:22.434Z,24.13
2022-12-04T10:06:12.236Z,27.30
2022-12-04T10:08:40.130Z,28.65
2022-12-04T10:11:10.604Z,33.83
2022-12-04T10:14:03.734Z,30.85
2022-12-04T10:16:45.747Z,31.13
2022-12-04T10:19:28.496Z,30.25
2022-12-04T10:22:10.136Z,28.05
2022-12-04T10:25:01.609Z,31.73
2022-12-04T10:27:34.625Z,31.08
2022-12-04T10:30:04.319Z,35.03
2022-12-04T10:32:32.695Z,27.50
2022-12-04T10:35:22.498Z,27.38
2022-12-04T10:37:58.193Z,32.03
2022-12-04T10:40:46.543Z,28.55
2022-12-04T10:43:18.295Z,30.98
2022-12-04T10:45:45.046Z,27.27
2022-12-04T10:48:21.722Z,27.73
2022-12-04T10:50:48.581Z,29.08
2022-12-04T10:53:15.354Z,32.35
2022-12-04T10:55:42.163Z,29.98
2022-12-04T10:58:17.642Z,28.17
2022-12-04T11:00:45.861Z,29.80
2022-12-04T11:03:26.056Z,36.10
2022-12-04T11:06:01.408Z,29.92
2022-12-04T11:08:49.713Z,25.48
2022-12-04T11:11:18.305Z,29.98
2022-12-04T11:13:45.090Z,33.17
2022-12-04T11:16:35.799Z,26.85
2022-12-04T11:19:02.622Z,28.20
2022-12-04T11:21:32.505Z,33.22
2022-12-04T11:23:59.363Z,34.55
2022-12-04T11:26:33.976Z,20.25
2022-12-04T11:29:01.687Z,26.45
2022-12-04T11:31:29.616Z,24.10
2022-12-04T11:34:01.850Z,24.75
2022-12-04T11:36:35.863Z,23.02
2022-12-04T11:39:11.858Z,25.45
2022-12-04T11:41:38.926Z,23.55
2022-12-04T11:44:06.471Z,21.52
2022-12-04T11:46:34.248Z,21.90
2022-12-04T11:49:03.350Z,23.73
2022-12-04T11:51:54.480Z,22.63
2022-12-04T11:54:46.252Z,20.15
2022-12-04T11:57:18.213Z,20.92
2022-12-04T12:00:00.119Z,17.48
2022-12-04T12:03:04.564Z,20.05
2022-12-04T12:05:53.819Z,27.98
2022-12-04T12:08:35.742Z,20.55
2022-12-04T12:11:10.563Z,18.48
2022-12-04T12:13:50.322Z,25.30
2022-12-04T12:16:17.130Z,23.63
2022-12-04T12:19:08.485Z,21.70
2022-12-04T12:21:38.453Z,21.80
2022-12-04T12:24:20.549Z,18.73
2022-12-04T12:27:35.045Z,17.92
2022-12-04T12:30:22.531Z,19.07
2022-12-04T12:32:53.946Z,23.13
2022-12-04T12:35:22.600Z,19.83
2022-12-04T12:37:59.493Z,19.65
2022-12-04T12:40:36.301Z,16.58
2022-12-04T12:43:07.002Z,21.00
2022-12-04T12:46:06.064Z,22.70
2022-12-04T12:48:46.006Z,21.23
2022-12-04T12:51:30.379Z,21.00
2022-12-04T12:54:02.134Z,19.95
2022-12-04T12:56:38.376Z,23.92
2022-12-04T12:59:06.289Z,23.60
2022-12-04T13:02:00.745Z,22.42
2022-12-04T13:04:38.125Z,27.85
2022-12-04T13:07:17.218Z,24.17
2022-12-04T13:10:07.487Z,19.88
2022-12-04T13:13:03.732Z,21.88
2022-12-04T13:15:51.577Z,29.75
2022-12-04T13:18:42.565Z,26.25
2022-12-04T13:21:09.325Z,26.67
2022-12-04T13:24:14.401Z,27.65
2022-12-04T13:29:19.389Z,25.80
2022-12-04T13:32:04.660Z,25.75
2022-12-04T13:34:43.769Z,31.92
2022-12-04T13:37:52.693Z,23.13
2022-12-04T13:40:33.691Z,25.92
2022-12-04T13:43:20.707Z,24.05
2022-12-04T13:45:48.822Z,24.95
2022-12-04T13:48:29.763Z,21.85
2022-12-04T13:51:24.122Z,22.63
2022-12-04T13:54:24.386Z,23.30
2022-12-04T13:56:55.693Z,21.08
2022-12-04T13:59:28.513Z,24.30
2022-12-04T14:01:57.138Z,26.25
2022-12-04T14:05:09.290Z,22.00
2022-12-04T14:07:43.782Z,26.77
2022-12-04T14:10:16.952Z,21.02
2022-12-04T14:12:52.043Z,19.85
2022-12-04T14:15:22.603Z,20.50
2022-12-04T14:18:11.219Z,22.60
2022-12-04T14:20:38.156Z,21.08
2022-12-04T14:23:27.144Z,20.17
2022-12-04T14:26:01.394Z,18.95
2022-12-04T14:28:42.197Z,19.75
2022-12-04T14:31:09.359Z,20.38
2022-12-04T14:33:39.701Z,24.30
2022-12-04T14:36:08.675Z,32.90
2022-12-04T14:38:35.478Z,19.23
2022-12-04T14:41:02.215Z,19.75
2022-12-04T14:43:40.213Z,19.85
2022-12-04T14:46:26.529Z,19.02
2022-12-04T14:49:14.969Z,17.73
2022-12-04T14:52:03.318Z,19.15
2022-12-04T14:54:41.178Z,18.20
2022-12-04T14:57:41.377Z,16.80
2022-12-04T15:00:18.893Z,19.95
2022-12-04T15:02:46.886Z,21.30
2022-12-04T15:05:21.010Z,17.38
2022-12-04T15:10:42.857Z,17.30
2022-12-04T15:13:09.611Z,18.45
2022-12-04T15:15:36.653Z,23.13
2022-12-04T15:18:09.596Z,17.20
2022-12-04T15:20:44.933Z,14.68
2022-12-04T15:23:14.811Z,23.42
2022-12-04T15:25:50.857Z,17.90
2022-12-04T15:28:33.056Z,15.85
2022-12-04T15:31:01.385Z,17.20
2022-12-04T15:33:30.031Z,11.98
2022-12-04T15:36:16.741Z,15.20
2022-12-04T15:38:43.509Z,22.95
2022-12-04T15:41:34.616Z,18.13
2022-12-04T15:44:01.525Z,14.05
2022-12-04T15:46:35.912Z,15.68
2022-12-04T15:49:17.329Z,14.23
2022-12-04T15:51:48.424Z,17.95
2022-12-04T15:54:22.822Z,15.70
2022-12-04T15:57:26.210Z,24.33
2022-12-04T15:59:53.725Z,16.52
2022-12-04T16:02:41.478Z,17.25
2022-12-04T16:05:20.103Z,24.27
2022-12-04T16:07:51.594Z,14.55
2022-12-04T16:10:22.587Z,16.27
2022-12-04T16:12:57.315Z,17.77
2022-12-04T16:15:24.507Z,17.42
2022-12-04T16:17:51.786Z,24.58
2022-12-04T16:20:19.099Z,16.08
2022-12-04T16:22:45.915Z,16.48
2022-12-04T16:25:13.602Z,19.55
2022-12-04T16:27:40.382Z,16.52
2022-12-04T16:30:08.259Z,20.85
2022-12-04T16:32:35.095Z,18.63
2022-12-04T16:35:01.983Z,19.33
2022-12-04T16:37:32.069Z,21.60
2022-12-04T16:39:58.889Z,22.23
2022-12-04T16:42:27.668Z,22.58
2022-12-04T16:44:54.694Z,21.92
2022-12-04T16:47:22.244Z,23.83
2022-12-04T16:49:50.631Z,18.75
2022-12-04T16:52:17.707Z,17.98
2022-12-04T16:54:44.408Z,20.70
2022-12-04T16:57:11.162Z,24.00
2022-12-04T16:59:37.991Z,20.70
2022-12-04T17:02:06.689Z,18.42
2022-12-04T17:04:33.619Z,18.35
2022-12-04T17:07:00.420Z,22.40
2022-12-04T17:09:27.158Z,18.02
2022-12-04T17:11:53.863Z,21.33
2022-12-04T17:14:20.660Z,17.27
2022-12-04T17:16:47.547Z,15.90
2022-12-04T17:19:14.650Z,20.23
2022-12-04T17:21:41.724Z,19.38
2022-12-04T17:24:08.580Z,19.77
2022-12-04T17:26:35.337Z,16.17
2022-12-04T17:29:02.161Z,20.55
2022-12-04T17:31:29.066Z,17.10
2022-12-04T17:33:56.640Z,20.77
2022-12-04T17:36:25.798Z,19.73
2022-12-04T17:38:58.970Z,18.55
2022-12-04T17:41:26.958Z,19.77
2022-12-04T17:43:59.342Z,20.52
2022-12-04T17:46:26.390Z,21.95
2022-12-04T17:48:55.242Z,19.83
2022-12-04T17:51:22.991Z,16.38
2022-12-04T17:53:50.158Z,22.48
2022-12-04T17:56:20.145Z,18.15
2022-12-04T17:58:48.216Z,19.58
2022-12-04T18:01:19.678Z,16.85
2022-12-04T18:03:52.967Z,21.50
2022-12-04T18:06:23.616Z,18.50
2022-12-04T18:08:50.748Z,18.20
2022-12-04T18:11:20.688Z,20.52
2022-12-04T18:14:08.514Z,20.52
2022-12-04T18:16:41.780Z,22.15
2022-12-04T18:19:08.551Z,17.27
2022-12-04T18:21:39.116Z,21.58
2022-12-04T18:24:06.339Z,17.05
2022-12-04T18:26:39.266Z,20.73
2022-12-04T18:29:06.398Z,19.73
2022-12-04T18:31:33.321Z,18.67
2022-12-04T18:34:00.619Z,20.48
2022-12-04T18:36:29.667Z,16.92
2022-12-04T18:39:01.196Z,22.65
2022-12-04T18:41:28.322Z,22.23
2022-12-04T18:43:55.102Z,18.42
2022-12-04T18:46:22.912Z,16.52
2022-12-04T18:48:50.996Z,23.55
2022-12-04T18:51:23.716Z,21.13
2022-12-04T18:53:51.794Z,23.77
2022-12-04T18:56:18.683Z,20.52
2022-12-04T18:58:46.570Z,21.42
2022-12-04T19:01:21.081Z,22.35
2022-12-04T19:03:48.067Z,18.85
2022-12-04T19:06:14.978Z,19.15
2022-12-04T19:08:43.434Z,22.95
2022-12-04T19:11:15.076Z,28.33
2022-12-04T19:13:41.981Z,21.35
2022-12-04T19:16:12.825Z,23.05
2022-12-04T19:18:39.654Z,22.52
2022-12-04T19:21:06.799Z,26.83
2022-12-04T19:23:33.590Z,18.52
2022-12-04T19:26:00.599Z,21.17
2022-12-04T19:28:30.011Z,16.13
2022-12-04T19:30:56.994Z,24.25
2022-12-04T19:33:24.042Z,19.77
2022-12-04T19:35:58.649Z,18.30
2022-12-04T19:38:25.767Z,20.35
2022-12-04T19:41:10.385Z,21.50
2022-12-04T19:43:41.690Z,18.27
2022-12-04T19:46:09.196Z,19.42
2022-12-04T19:48:37.932Z,20.58
2022-12-04T19:51:12.377Z,20.63
2022-12-04T19:53:41.042Z,20.77
2022-12-04T19:56:10.416Z,20.42
2022-12-04T19:58:37.128Z,18.40
2022-12-04T20:01:05.667Z,18.23
2022-12-04T20:03:32.863Z,21.20
2022-12-04T20:06:07.620Z,19.95
2022-12-04T20:08:34.546Z,22.70
2022-12-04T20:11:06.731Z,17.60
2022-12-04T20:13:36.705Z,20.98
2022-12-04T20:16:07.850Z,15.73
2022-12-04T20:18:35.785Z,16.05
2022-12-04T20:21:02.628Z,18.85
2022-12-04T20:23:29.345Z,20.10
2022-12-04T20:25:56.044Z,19.58
2022-12-04T20:28:22.757Z,17.63
2022-12-04T20:30:49.912Z,21.02
2022-12-04T20:33:17.118Z,21.58
2022-12-04T20:35:43.881Z,17.98
2022-12-04T20:38:10.686Z,20.95
2022-12-04T20:40:37.385Z,18.35
2022-12-04T20:43:04.154Z,27.33
2022-12-04T20:45:31.176Z,20.70
2022-12-04T20:47:58.162Z,20.73
2022-12-04T20:50:25.237Z,16.83
2022-12-04T20:52:52.009Z,20.02
2022-12-04T20:55:19.139Z,18.15
2022-12-04T20:57:45.972Z,18.90
2022-12-04T21:00:13.340Z,17.85
2022-12-04T21:02:40.239Z,20.17
2022-12-04T21:05:07.460Z,19.10
2022-12-04T21:07:34.252Z,19.65
2022-12-04T21:10:01.069Z,22.80
2022-12-04T21:12:46.402Z,26.67
2022-12-04T21:15:31.655Z,23.55
2022-12-04T21:18:01.181Z,25.00
2022-12-04T21:20:28.316Z,20.45
2022-12-04T21:22:55.068Z,21.90
2022-12-04T21:25:21.990Z,17.00
2022-12-04T21:27:49.177Z,20.63
2022-12-04T21:30:15.994Z,22.10
2022-12-04T21:32:42.911Z,21.40
2022-12-04T21:35:09.840Z,23.80
2022-12-04T21:37:36.609Z,22.25
2022-12-04T21:40:04.076Z,23.20
2022-12-04T21:42:30.827Z,25.65
2022-12-04T21:45:01.457Z,28.95
2022-12-04T21:47:28.275Z,25.63
2022-12-04T21:49:55.406Z,23.13
2022-12-04T21:52:22.517Z,23.15
2022-12-04T21:54:50.889Z,27.95
2022-12-04T21:57:17.651Z,27.58
2022-12-04T21:59:44.542Z,28.58
2022-12-04T22:02:12.000Z,26.67
2022-12-04T22:04:41.315Z,23.40
2022-12-04T22:07:08.249Z,21.63
2022-12-04T22:09:36.040Z,21.55
2022-12-04T22:12:14.647Z,21.30
2022-12-04T22:14:49.676Z,27.60
2022-12-04T22:17:16.433Z,31.08
2022-12-04T22:19:43.270Z,33.88
2022-12-04T22:22:10.003Z,27.17
2022-12-04T22:24:36.746Z,26.95
2022-12-04T22:27:03.576Z,32.33
2022-12-04T22:32:17.073Z,23.55
2022-12-04T22:34:43.838Z,24.17
2022-12-04T22:37:10.610Z,21.63
2022-12-04T22:39:37.445Z,25.95
2022-12-04T22:42:04.404Z,25.08
2022-12-04T22:44:34.379Z,23.45
2022-12-04T22:47:01.339Z,28.15
2022-12-04T22:49:28.632Z,24.67
2022-12-04T22:51:55.339Z,31.70
2022-12-04T22:54:22.032Z,24.23
2022-12-04T22:56:48.960Z,28.42
2022-12-04T22:59:15.959Z,23.98
2022-12-04T23:01:42.838Z,26.35
2022-12-04T23:04:09.806Z,29.30
2022-12-04T23:06:36.571Z,34.97
2022-12-04T23:09:08.426Z,27.73
2022-12-04T23:11:35.429Z,25.75
2022-12-04T23:14:04.159Z,25.92
2022-12-04T23:16:32.082Z,32.78
2022-12-04T23:18:59.008Z,31.67
2022-12-04T23:21:25.872Z,30.23
2022-12-04T23:23:53.240Z,30.77
2022-12-04T23:26:27.939Z,26.45
2022-12-04T23:28:55.325Z,34.58
2022-12-04T23:31:22.168Z,32.45
2022-12-04T23:33:49.059Z,25.35
2022-12-04T23:36:15.886Z,31.98
2022-12-04T23:38:43.227Z,31.35
2022-12-04T23:41:21.250Z,28.85
2022-12-04T23:43:48.423Z,34.03
2022-12-04T23:46:16.644Z,33.50
2022-12-04T23:48:44.074Z,34.90
2022-12-04T23:51:11.627Z,27.60
2022-12-04T23:53:38.636Z,31.50
2022-12-04T23:56:22.977Z,31.73
2022-12-04T23:58:50.649Z,32.78
